createdAt,value
2022-07-28T00:01:19.846Z,100405.56
2022-07-28T00:03:49.269Z,100397.09
2022-07-28T00:06:18.262Z,100419.22
2022-07-28T00:08:46.943Z,100396.44
2022-07-28T00:11:15.641Z,100410.78
2022-07-28T00:13:45.719Z,100408.13
2022-07-28T00:16:14.289Z,100407.78
2022-07-28T00:18:42.830Z,100418.16
2022-07-28T00:21:11.277Z,100405.44
2022-07-28T00:23:40.307Z,100406.13
2022-07-28T00:26:10.678Z,100400.13
2022-07-28T00:28:39.276Z,100402.13
2022-07-28T00:31:10.058Z,100404.16
2022-07-28T00:33:40.397Z,100409.66
2022-07-28T00:36:11.528Z,100420.47
2022-07-28T00:38:44.238Z,100422.47
2022-07-28T00:41:13.855Z,100406.03
2022-07-28T00:43:43.944Z,100418.16
2022-07-28T00:46:14.766Z,100425.16
2022-07-28T00:48:45.917Z,100421.34
2022-07-28T00:51:17.665Z,100402.72
2022-07-28T00:53:46.988Z,100414.84
2022-07-28T00:56:16.428Z,100410.06
2022-07-28T00:58:45.113Z,100410.06
2022-07-28T01:01:19.974Z,100403.22
2022-07-28T01:03:52.205Z,100395.59
2022-07-28T01:06:36.571Z,100410.91
2022-07-28T01:09:11.487Z,100412.22
2022-07-28T01:11:49.484Z,100393.25
2022-07-28T01:14:25.957Z,100403.59
2022-07-28T01:17:05.401Z,100419.91
2022-07-28T01:19:45.165Z,100417.75
2022-07-28T01:22:20.111Z,100411.44
2022-07-28T01:24:57.826Z,100399.94
2022-07-28T01:27:38.134Z,100407.59
2022-07-28T01:30:09.864Z,100422.56
2022-07-28T01:32:44.726Z,100408.75
2022-07-28T01:35:18.352Z,100428.06
2022-07-28T01:37:50.193Z,100409.59
2022-07-28T01:40:22.150Z,100410.25
2022-07-28T01:42:53.921Z,100415.91
2022-07-28T01:45:23.227Z,100421.91
2022-07-28T01:47:55.981Z,100422.25
2022-07-28T01:50:26.405Z,100428.72
2022-07-28T01:52:56.994Z,100414.91
2022-07-28T01:55:26.816Z,100424.56
2022-07-28T01:57:57.013Z,100424.50
2022-07-28T02:00:27.906Z,100437.16
2022-07-28T02:02:59.504Z,100416.81
2022-07-28T02:05:30.173Z,100420.16
2022-07-28T02:08:00.971Z,100421.81
2022-07-28T02:10:31.519Z,100430.16
2022-07-28T02:13:01.940Z,100426.81
2022-07-28T02:15:32.797Z,100426.16
2022-07-28T02:18:04.354Z,100421.16
2022-07-28T02:20:33.968Z,100422.63
2022-07-28T02:23:02.739Z,100432.16
2022-07-28T02:25:31.833Z,100426.81
2022-07-28T02:28:05.136Z,100427.16
2022-07-28T02:30:37.718Z,100431.47
2022-07-28T02:33:13.883Z,100437.13
2022-07-28T02:35:53.132Z,100435.78
2022-07-28T02:38:27.852Z,100433.44
2022-07-28T02:40:59.923Z,100438.09
2022-07-28T02:43:49.064Z,100440.09
2022-07-28T02:46:21.910Z,100443.56
2022-07-28T02:48:56.091Z,100438.91
2022-07-28T02:51:26.445Z,100452.88
2022-07-28T02:53:56.030Z,100451.88
2022-07-28T02:56:25.949Z,100459.03
2022-07-28T02:58:55.857Z,100459.19
2022-07-28T03:01:25.943Z,100460.03
2022-07-28T03:03:56.426Z,100463.16
2022-07-28T03:06:28.897Z,100466.50
2022-07-28T03:08:58.084Z,100475.47
2022-07-28T03:11:27.910Z,100463.13
2022-07-28T03:13:56.615Z,100464.97
2022-07-28T03:16:25.131Z,100475.09
2022-07-28T03:18:53.662Z,100486.09
2022-07-28T03:21:23.641Z,100475.56
2022-07-28T03:23:53.521Z,100471.53
2022-07-28T03:26:29.063Z,100476.50
2022-07-28T03:28:59.092Z,100483.81
2022-07-28T03:31:29.008Z,100482.13
2022-07-28T03:33:58.424Z,100487.47
2022-07-28T03:36:41.447Z,100476.09
2022-07-28T03:39:12.251Z,100500.41
2022-07-28T03:41:44.240Z,100493.38
2022-07-28T03:44:15.416Z,100506.34
2022-07-28T03:46:56.468Z,100505.03
2022-07-28T03:49:25.240Z,100499.22
2022-07-28T03:51:55.105Z,100497.69
2022-07-28T03:54:23.645Z,100517.22
2022-07-28T03:56:54.370Z,100503.69
2022-07-28T03:59:25.041Z,100495.34
2022-07-28T04:01:56.609Z,100508.00
2022-07-28T04:04:26.997Z,100502.34
2022-07-28T04:06:56.957Z,100500.53
2022-07-28T04:09:25.641Z,100515.53
2022-07-28T04:11:54.204Z,100524.34
2022-07-28T04:14:23.285Z,100501.34
2022-07-28T04:16:52.234Z,100505.84
2022-07-28T04:19:20.906Z,100502.69
2022-07-28T04:21:49.510Z,100501.03
2022-07-28T04:24:19.907Z,100518.56
2022-07-28T04:26:48.695Z,100504.06
2022-07-28T04:29:23.442Z,100510.72
2022-07-28T04:31:56.020Z,100501.56
2022-07-28T04:34:25.936Z,100514.38
2022-07-28T04:36:55.666Z,100508.41
2022-07-28T04:39:28.444Z,100507.75
2022-07-28T04:41:57.354Z,100507.78
2022-07-28T04:44:26.037Z,100502.16
2022-07-28T04:46:54.588Z,100508.31
2022-07-28T04:49:23.172Z,100518.31
2022-07-28T04:51:52.717Z,100508.53
2022-07-28T04:54:27.132Z,100521.88
2022-07-28T04:56:55.738Z,100516.22
2022-07-28T04:59:24.702Z,100508.59
2022-07-28T05:01:54.257Z,100499.63
2022-07-28T05:04:22.880Z,100509.63
2022-07-28T05:06:51.498Z,100508.66
2022-07-28T05:09:20.191Z,100493.03
2022-07-28T05:11:50.186Z,100491.19
2022-07-28T05:14:19.022Z,100510.59
2022-07-28T05:16:47.654Z,100512.78
2022-07-28T05:19:17.536Z,100506.78
2022-07-28T05:21:46.342Z,100513.13
2022-07-28T05:24:15.298Z,100513.63
2022-07-28T05:26:44.026Z,100507.81
2022-07-28T05:29:14.015Z,100528.00
2022-07-28T05:31:42.552Z,100528.47
2022-07-28T05:34:11.416Z,100507.50
2022-07-28T05:36:41.007Z,100514.34
2022-07-28T05:39:09.561Z,100519.84
2022-07-28T05:41:38.105Z,100525.69
2022-07-28T05:44:07.015Z,100519.84
2022-07-28T05:46:36.915Z,100518.00
2022-07-28T05:49:05.541Z,100530.81
2022-07-28T05:51:38.385Z,100523.16
2022-07-28T05:54:10.174Z,100519.00
2022-07-28T05:56:38.897Z,100517.47
2022-07-28T05:59:10.546Z,100521.34
2022-07-28T06:01:40.671Z,100534.84
2022-07-28T06:04:26.817Z,100525.97
2022-07-28T06:06:56.655Z,100550.59
2022-07-28T06:09:25.378Z,100528.59
2022-07-28T06:11:53.901Z,100535.22
2022-07-28T06:14:22.406Z,100540.22
2022-07-28T06:16:52.550Z,100548.00
2022-07-28T06:19:21.610Z,100539.78
2022-07-28T06:21:52.678Z,100552.91
2022-07-28T06:24:21.271Z,100546.06
2022-07-28T06:26:49.766Z,100558.22
2022-07-28T06:29:19.127Z,100554.69
2022-07-28T06:31:47.667Z,100553.72
2022-07-28T06:34:17.864Z,100556.59
2022-07-28T06:36:46.706Z,100560.41
2022-07-28T06:39:15.300Z,100556.09
2022-07-28T06:41:44.822Z,100555.28
2022-07-28T06:44:13.642Z,100556.13
2022-07-28T06:46:42.338Z,100544.84
2022-07-28T06:49:11.012Z,100558.16
2022-07-28T06:51:41.204Z,100538.47
2022-07-28T06:54:11.571Z,100551.22
2022-07-28T06:56:40.225Z,100557.69
2022-07-28T06:59:10.635Z,100544.78
2022-07-28T07:01:39.407Z,100550.38
2022-07-28T07:04:08.489Z,100549.25
2022-07-28T07:06:37.326Z,100554.84
2022-07-28T07:09:07.281Z,100557.25
2022-07-28T07:11:35.778Z,100566.63
2022-07-28T07:14:04.911Z,100563.13
2022-07-28T07:16:34.821Z,100555.91
2022-07-28T07:19:06.819Z,100556.94
2022-07-28T07:21:35.910Z,100569.31
2022-07-28T07:24:04.455Z,100548.63
2022-07-28T07:26:34.327Z,100560.16
2022-07-28T07:29:02.906Z,100558.88
2022-07-28T07:31:31.416Z,100546.75
2022-07-28T07:34:00.003Z,100553.13
2022-07-28T07:36:28.621Z,100555.84
2022-07-28T07:38:57.421Z,100564.41
2022-07-28T07:41:26.218Z,100560.72
2022-07-28T07:43:56.155Z,100558.19
2022-07-28T07:46:24.718Z,100553.63
2022-07-28T07:48:53.306Z,100557.63
2022-07-28T07:51:22.259Z,100559.31
2022-07-28T07:53:50.765Z,100551.22
2022-07-28T07:56:19.333Z,100552.88
2022-07-28T07:58:47.890Z,100560.44
2022-07-28T08:01:17.828Z,100565.72
2022-07-28T08:03:50.010Z,100552.44
2022-07-28T08:06:26.474Z,100561.38
2022-07-28T08:08:55.463Z,100563.84
2022-07-28T08:11:24.221Z,100562.41
2022-07-28T08:13:52.791Z,100546.06
2022-07-28T08:16:22.902Z,100547.50
2022-07-28T08:18:51.464Z,100555.41
2022-07-28T08:21:19.972Z,100548.53
2022-07-28T08:23:48.510Z,100545.66
2022-07-28T08:26:17.014Z,100533.63
2022-07-28T08:28:45.506Z,100546.88
2022-07-28T08:31:14.076Z,100551.41
2022-07-28T08:33:53.363Z,100539.09
2022-07-28T08:36:23.275Z,100545.34
2022-07-28T08:38:51.841Z,100548.56
2022-07-28T08:41:24.331Z,100536.06
2022-07-28T08:43:54.365Z,100548.28
2022-07-28T08:46:24.438Z,100552.00
2022-07-28T08:48:54.704Z,100545.75
2022-07-28T08:51:24.321Z,100535.81
2022-07-28T08:53:53.250Z,100534.41
2022-07-28T08:56:23.018Z,100539.84
2022-07-28T08:58:51.515Z,100539.38
2022-07-28T09:01:20.431Z,100539.84
2022-07-28T09:03:49.323Z,100539.91
2022-07-28T09:06:19.595Z,100539.50
2022-07-28T09:08:48.732Z,100540.44
2022-07-28T09:11:17.207Z,100538.34
2022-07-28T09:13:47.257Z,100535.31
2022-07-28T09:16:17.411Z,100522.78
2022-07-28T09:18:46.265Z,100536.00
2022-07-28T09:21:15.759Z,100530.72
2022-07-28T09:23:47.093Z,100522.06
2022-07-28T09:26:16.016Z,100529.91
2022-07-28T09:28:53.490Z,100529.38
2022-07-28T09:31:22.982Z,100535.53
2022-07-28T09:33:55.972Z,100534.19
2022-07-28T09:36:24.737Z,100531.91
2022-07-28T09:38:56.867Z,100531.66
2022-07-28T09:41:25.665Z,100524.81
2022-07-28T09:43:55.749Z,100529.63
2022-07-28T09:46:29.340Z,100531.25
2022-07-28T09:48:59.908Z,100532.94
2022-07-28T09:51:30.889Z,100525.78
2022-07-28T09:54:12.806Z,100520.78
2022-07-28T09:56:43.452Z,100528.44
2022-07-28T09:59:14.489Z,100524.78
2022-07-28T10:01:53.896Z,100531.31
2022-07-28T10:04:33.913Z,100528.25
2022-07-28T10:07:04.003Z,100516.22
2022-07-28T10:09:34.745Z,100515.38
2022-07-28T10:12:20.664Z,100514.53
2022-07-28T10:14:50.668Z,100501.56
2022-07-28T10:17:30.697Z,100504.06
2022-07-28T10:20:01.579Z,100508.53
2022-07-28T10:22:33.505Z,100511.91
2022-07-28T10:25:09.986Z,100512.78
2022-07-28T10:27:42.156Z,100510.44
2022-07-28T10:30:12.797Z,100498.84
2022-07-28T10:32:44.866Z,100504.66
2022-07-28T10:35:14.778Z,100497.19
2022-07-28T10:37:51.431Z,100497.00
2022-07-28T10:40:26.424Z,100484.09
2022-07-28T10:42:55.490Z,100491.22
2022-07-28T10:45:41.946Z,100490.72
2022-07-28T10:48:15.615Z,100490.69
2022-07-28T10:50:45.723Z,100491.63
2022-07-28T10:53:27.999Z,100491.63
2022-07-28T10:56:03.990Z,100491.81
2022-07-28T10:58:44.910Z,100493.19
2022-07-28T11:01:49.528Z,100492.34
2022-07-28T11:04:55.656Z,100483.59
2022-07-28T11:07:24.304Z,100483.50
2022-07-28T11:09:53.694Z,100491.25
2022-07-28T11:12:51.320Z,100490.03
2022-07-28T11:15:35.482Z,100488.16
2022-07-28T11:18:08.721Z,100490.69
2022-07-28T11:21:07.963Z,100495.69
2022-07-28T11:23:55.366Z,100487.88
2022-07-28T11:26:38.657Z,100489.72
2022-07-28T11:29:21.820Z,100482.97
2022-07-28T11:32:01.361Z,100478.13
2022-07-28T11:34:49.896Z,100468.28
2022-07-28T11:37:18.398Z,100483.09
2022-07-28T11:39:46.980Z,100477.91
2022-07-28T11:42:26.304Z,100474.25
2022-07-28T11:44:56.646Z,100479.91
2022-07-28T11:47:28.718Z,100473.50
2022-07-28T11:50:13.546Z,100476.09
2022-07-28T11:52:54.437Z,100472.97
2022-07-28T11:55:49.211Z,100473.16
2022-07-28T11:58:25.728Z,100462.81
2022-07-28T12:03:55.332Z,100460.16
2022-07-28T12:06:29.190Z,100458.22
2022-07-28T12:09:00.253Z,100455.56
2022-07-28T12:11:32.424Z,100446.19
2022-07-28T12:14:01.532Z,100442.94
2022-07-28T12:16:30.864Z,100441.19
2022-07-28T12:19:02.205Z,100432.47
2022-07-28T12:21:48.322Z,100441.34
2022-07-28T12:24:21.068Z,100435.88
2022-07-28T12:26:50.630Z,100444.88
2022-07-28T12:29:21.682Z,100438.38
2022-07-28T12:31:56.148Z,100434.09
2022-07-28T12:34:28.920Z,100434.94
2022-07-28T12:36:58.763Z,100431.66
2022-07-28T12:39:27.532Z,100437.13
2022-07-28T12:42:04.772Z,100427.28
2022-07-28T12:44:37.930Z,100436.03
2022-07-28T12:47:09.298Z,100431.34
2022-07-28T12:49:42.299Z,100430.53
2022-07-28T12:52:18.460Z,100434.41
2022-07-28T12:54:53.507Z,100430.00
2022-07-28T12:57:47.983Z,100429.69
2022-07-28T13:00:20.314Z,100422.34
2022-07-28T13:02:49.695Z,100425.88
2022-07-28T13:05:50.933Z,100433.44
2022-07-28T13:08:19.412Z,100423.31
2022-07-28T13:10:51.665Z,100422.13
2022-07-28T13:13:22.244Z,100414.09
2022-07-28T13:16:15.372Z,100418.69
2022-07-28T13:18:45.593Z,100421.00
2022-07-28T13:21:16.855Z,100415.06
2022-07-28T13:23:55.949Z,100422.16
2022-07-28T13:26:24.432Z,100405.88
2022-07-28T13:29:01.102Z,100406.97
2022-07-28T13:31:29.634Z,100400.31
2022-07-28T13:33:58.135Z,100404.63
2022-07-28T13:36:27.979Z,100395.50
2022-07-28T13:38:56.479Z,100398.47
2022-07-28T13:41:25.269Z,100397.91
2022-07-28T13:44:13.985Z,100397.31
2022-07-28T13:46:47.331Z,100392.91
2022-07-28T13:49:21.449Z,100392.16
2022-07-28T13:51:52.016Z,100396.63
2022-07-28T13:54:20.769Z,100390.88
2022-07-28T13:57:13.416Z,100391.19
2022-07-28T13:59:43.904Z,100380.09
2022-07-28T14:02:15.029Z,100390.81
2022-07-28T14:04:45.884Z,100380.19
2022-07-28T14:07:20.352Z,100378.59
2022-07-28T14:09:50.348Z,100382.13
2022-07-28T14:12:18.959Z,100378.03
2022-07-28T14:14:54.500Z,100371.13
2022-07-28T14:20:13.506Z,100373.31
2022-07-28T14:22:43.606Z,100379.50
2022-07-28T14:25:13.426Z,100371.31
2022-07-28T14:27:48.003Z,100368.22
2022-07-28T14:30:16.454Z,100365.44
2022-07-28T14:32:44.843Z,100355.88
2022-07-28T14:35:13.217Z,100348.22
2022-07-28T14:40:33.155Z,100359.94
2022-07-28T14:43:08.409Z,100345.91
2022-07-28T14:45:51.382Z,100360.25
2022-07-28T14:48:25.572Z,100355.06
2022-07-28T14:50:55.634Z,100352.28
2022-07-28T14:53:28.085Z,100356.09
2022-07-28T14:55:56.952Z,100358.84
2022-07-28T14:58:25.949Z,100348.13
2022-07-28T15:00:54.745Z,100352.50
2022-07-28T15:03:23.294Z,100345.91
2022-07-28T15:05:52.038Z,100355.44
2022-07-28T15:08:20.615Z,100359.28
2022-07-28T15:10:55.303Z,100353.75
2022-07-28T15:13:23.694Z,100352.22
2022-07-28T15:15:52.240Z,100355.75
2022-07-28T15:18:20.961Z,100351.00
2022-07-28T15:20:54.884Z,100344.63
2022-07-28T15:23:23.352Z,100345.69
2022-07-28T15:25:53.723Z,100346.84
2022-07-28T15:28:23.972Z,100344.13
2022-07-28T15:30:52.842Z,100339.75
2022-07-28T15:33:21.837Z,100339.63
2022-07-28T15:35:57.815Z,100342.53
2022-07-28T15:38:29.207Z,100342.91
2022-07-28T15:40:59.360Z,100345.41
2022-07-28T15:43:29.339Z,100333.78
2022-07-28T15:45:58.139Z,100329.81
2022-07-28T15:48:26.796Z,100331.44
2022-07-28T15:50:55.796Z,100331.44
2022-07-28T15:53:24.614Z,100326.63
2022-07-28T15:55:53.300Z,100326.63
2022-07-28T15:58:23.529Z,100336.06
2022-07-28T16:00:54.128Z,100336.97
2022-07-28T16:03:23.130Z,100323.22
2022-07-28T16:05:52.259Z,100323.25
2022-07-28T16:08:23.481Z,100324.03
2022-07-28T16:10:53.196Z,100322.69
2022-07-28T16:13:32.838Z,100310.75
2022-07-28T16:16:08.746Z,100318.66
2022-07-28T16:18:37.837Z,100315.94
2022-07-28T16:21:06.646Z,100312.03
2022-07-28T16:23:35.748Z,100316.78
2022-07-28T16:26:08.009Z,100316.28
2022-07-28T16:28:36.752Z,100308.00
2022-07-28T16:31:06.835Z,100308.00
2022-07-28T16:33:35.337Z,100302.03
2022-07-28T16:36:04.152Z,100305.59
2022-07-28T16:38:32.619Z,100308.03
2022-07-28T16:41:01.041Z,100303.63
2022-07-28T16:43:29.566Z,100312.69
2022-07-28T16:45:58.182Z,100309.69
2022-07-28T16:48:28.075Z,100306.97
2022-07-28T16:50:56.895Z,100298.22
2022-07-28T16:53:25.284Z,100309.13
2022-07-28T16:55:53.672Z,100300.66
2022-07-28T16:58:22.544Z,100299.03
2022-07-28T17:00:51.431Z,100300.38
2022-07-28T17:03:19.919Z,100307.47
2022-07-28T17:05:50.280Z,100300.09
2022-07-28T17:08:19.481Z,100292.19
2022-07-28T17:10:48.322Z,100298.19
2022-07-28T17:13:18.917Z,100296.78
2022-07-28T17:15:47.397Z,100296.50
2022-07-28T17:18:18.431Z,100300.47
2022-07-28T17:20:47.298Z,100295.13
2022-07-28T17:23:17.171Z,100297.53
2022-07-28T17:26:09.066Z,100294.50
2022-07-28T17:28:34.702Z,100303.53
2022-07-28T17:31:03.164Z,100296.66
2022-07-28T17:33:31.720Z,100293.09
2022-07-28T17:36:00.764Z,100301.25
2022-07-28T17:38:33.242Z,100299.13
2022-07-28T17:41:04.467Z,100301.09
2022-07-28T17:43:33.353Z,100305.41
2022-07-28T17:46:02.935Z,100306.53
2022-07-28T17:48:36.988Z,100304.91
2022-07-28T17:51:05.680Z,100304.38
2022-07-28T17:53:39.209Z,100313.34
2022-07-28T17:56:08.930Z,100306.56
2022-07-28T17:58:37.890Z,100310.44
2022-07-28T18:01:12.162Z,100309.34
2022-07-28T18:03:57.968Z,100307.41
2022-07-28T18:06:27.463Z,100306.88
2022-07-28T18:08:57.522Z,100305.22
2022-07-28T18:11:31.391Z,100310.41
2022-07-28T18:14:03.879Z,100313.38
2022-07-28T18:16:46.405Z,100311.47
2022-07-28T18:19:14.943Z,100296.97
2022-07-28T18:21:43.921Z,100302.13
2022-07-28T18:24:14.202Z,100312.47
2022-07-28T18:26:42.926Z,100306.44
2022-07-28T18:29:11.328Z,100310.19
2022-07-28T18:31:45.888Z,100306.84
2022-07-28T18:34:15.864Z,100306.25
2022-07-28T18:36:44.721Z,100304.00
2022-07-28T18:39:14.783Z,100310.50
2022-07-28T18:41:46.286Z,100304.94
2022-07-28T18:44:17.247Z,100311.19
2022-07-28T18:46:46.813Z,100314.09
2022-07-28T18:49:15.446Z,100314.06
2022-07-28T18:51:45.263Z,100313.44
2022-07-28T18:54:21.506Z,100316.00
2022-07-28T18:56:55.765Z,100329.47
2022-07-28T18:59:24.527Z,100329.53
2022-07-28T19:01:53.272Z,100327.41
2022-07-28T19:04:21.741Z,100322.78
2022-07-28T19:06:50.188Z,100326.44
2022-07-28T19:09:20.035Z,100333.56
2022-07-28T19:11:48.657Z,100338.56
2022-07-28T19:14:17.892Z,100332.41
2022-07-28T19:16:46.802Z,100344.75
2022-07-28T19:19:15.497Z,100342.97
2022-07-28T19:21:46.806Z,100345.50
2022-07-28T19:24:17.224Z,100344.28
2022-07-28T19:26:48.561Z,100341.63
2022-07-28T19:29:17.174Z,100342.47
2022-07-28T19:31:48.878Z,100343.53
2022-07-28T19:34:17.591Z,100354.22
2022-07-28T19:36:47.789Z,100351.53
2022-07-28T19:39:16.406Z,100348.84
2022-07-28T19:41:44.885Z,100354.06
2022-07-28T19:44:15.485Z,100349.25
2022-07-28T19:46:45.038Z,100363.41
2022-07-28T19:49:13.707Z,100348.16
2022-07-28T19:51:42.217Z,100361.81
2022-07-28T19:54:15.421Z,100360.31
2022-07-28T19:56:44.291Z,100364.41
2022-07-28T19:59:12.682Z,100360.41
2022-07-28T20:01:46.726Z,100364.75
2022-07-28T20:04:19.135Z,100359.09
2022-07-28T20:06:50.877Z,100361.34
2022-07-28T20:09:23.464Z,100363.19
2022-07-28T20:11:52.426Z,100358.31
2022-07-28T20:14:21.072Z,100372.19
2022-07-28T20:16:51.038Z,100362.75
2022-07-28T20:19:19.508Z,100360.59
2022-07-28T20:21:48.078Z,100376.09
2022-07-28T20:24:19.464Z,100370.22
2022-07-28T20:26:48.046Z,100371.59
2022-07-28T20:29:16.698Z,100370.84
2022-07-28T20:31:45.090Z,100371.16
2022-07-28T20:34:15.399Z,100371.41
2022-07-28T20:36:44.360Z,100370.31
2022-07-28T20:39:42.044Z,100368.75
2022-07-28T20:42:01.408Z,100372.81
2022-07-28T20:44:30.512Z,100373.94
2022-07-28T20:47:00.744Z,100385.25
2022-07-28T20:49:31.098Z,100372.88
2022-07-28T20:51:59.807Z,100385.84
2022-07-28T20:54:28.288Z,100377.41
2022-07-28T20:56:56.861Z,100384.34
2022-07-28T20:59:27.955Z,100377.38
2022-07-28T21:01:57.101Z,100378.25
2022-07-28T21:04:26.794Z,100388.28
2022-07-28T21:07:02.034Z,100385.25
2022-07-28T21:09:32.619Z,100387.63
2022-07-28T21:12:01.219Z,100374.00
2022-07-28T21:14:29.739Z,100370.72
2022-07-28T21:16:58.231Z,100373.44
2022-07-28T21:19:26.755Z,100375.59
2022-07-28T21:21:56.589Z,100389.13
2022-07-28T21:24:24.983Z,100393.09
2022-07-28T21:26:53.777Z,100392.53
2022-07-28T21:32:02.072Z,100395.66
2022-07-28T21:34:35.084Z,100400.66
2022-07-28T21:37:06.893Z,100399.69
2022-07-28T21:39:36.929Z,100401.38
2022-07-28T21:42:08.426Z,100402.38
2022-07-28T21:44:38.151Z,100400.91
2022-07-28T21:47:06.912Z,100404.22
2022-07-28T21:49:35.431Z,100405.88
2022-07-28T21:52:05.665Z,100395.53
2022-07-28T21:54:34.254Z,100399.50
2022-07-28T21:57:02.633Z,100390.56
2022-07-28T21:59:34.333Z,100390.78
2022-07-28T22:02:02.798Z,100397.22
2022-07-28T22:04:31.335Z,100390.38
2022-07-28T22:06:59.733Z,100392.25
2022-07-28T22:09:32.709Z,100391.84
2022-07-28T22:12:03.419Z,100400.31
2022-07-28T22:14:32.866Z,100399.13
2022-07-28T22:17:02.176Z,100404.38
2022-07-28T22:19:31.581Z,100407.09
2022-07-28T22:22:00.561Z,100402.34
2022-07-28T22:24:30.457Z,100396.97
2022-07-28T22:26:59.488Z,100409.13
2022-07-28T22:29:27.915Z,100405.22
2022-07-28T22:31:59.821Z,100404.81
2022-07-28T22:34:28.978Z,100400.03
2022-07-28T22:36:57.419Z,100397.31
2022-07-28T22:39:25.953Z,100394.00
2022-07-28T22:41:55.863Z,100398.97
2022-07-28T22:44:24.349Z,100402.66
2022-07-28T22:46:52.743Z,100400.16
2022-07-28T22:49:21.275Z,100410.69
2022-07-28T22:51:50.597Z,100414.19
2022-07-28T22:54:19.094Z,100415.81
2022-07-28T22:56:47.934Z,100415.78
2022-07-28T22:59:17.980Z,100410.41
2022-07-28T23:01:46.637Z,100414.69
2022-07-28T23:04:15.468Z,100408.28
2022-07-28T23:06:44.178Z,100419.63
2022-07-28T23:09:12.837Z,100413.22
2022-07-28T23:11:41.290Z,100413.63
2022-07-28T23:14:25.492Z,100421.03
2022-07-28T23:16:53.905Z,100420.78
2022-07-28T23:19:22.310Z,100426.13
2022-07-28T23:21:50.879Z,100422.97
2022-07-28T23:24:19.501Z,100421.69
2022-07-28T23:26:48.026Z,100420.44
2022-07-28T23:29:16.625Z,100417.69
2022-07-28T23:31:46.500Z,100422.00
2022-07-28T23:34:15.276Z,100413.69
2022-07-28T23:36:44.480Z,100412.44
2022-07-28T23:39:13.213Z,100408.66
2022-07-28T23:41:41.798Z,100410.28
2022-07-28T23:44:10.232Z,100399.31
2022-07-28T23:46:38.715Z,100403.41
2022-07-28T23:49:08.727Z,100414.91
2022-07-28T23:51:47.581Z,100410.97
2022-07-28T23:54:17.666Z,100398.06
2022-07-28T23:56:46.333Z,100409.00
2022-07-28T23:59:14.985Z,100408.53
